Terminal Aerodrome Forecast
Issued by NWS

Home | Current Version | Previous Version | Text Only | Print | Product List | Glossary On
Versions: 1 2 3 4 5 6 7 8 9 10 11 12 13 14 15 16 17 18 19 20 21 22 23 24 25 26 27 28
000
FTUS45 KPIH 201300 AAA
TAFSUN
TAF AMD
KSUN 201356Z 2014/2112 VRB03KT P6SM VCSH SCT015 BKN035
      TEMPO 2014/2018 4SM -SN BKN015
     FM201800 VRB03KT 4SM -SN SCT005 BKN015
     FM202200 15007KT 2SM -SNRA BR OVC008
     FM210500 VRB03KT 2SM -SN BR OVC008
      AMD LTD TO CLD VIS AND WIND TIL 201400=

USA.gov is the U.S. government's official web portal to all federal, state and local government web resources and services.